createdAt,value
2018-01-14T00:01:09.790Z,4.90
2018-01-14T00:03:37.495Z,4.90
2018-01-14T00:06:05.931Z,4.90
2018-01-14T00:08:33.597Z,4.80
2018-01-14T00:11:01.554Z,4.90
2018-01-14T00:13:29.414Z,4.90
2018-01-14T00:15:57.107Z,4.80
2018-01-14T00:18:24.802Z,4.80
2018-01-14T00:20:52.551Z,4.80
2018-01-14T00:23:20.961Z,4.80
2018-01-14T00:25:48.619Z,4.80
2018-01-14T00:28:16.244Z,4.80
2018-01-14T00:30:44.664Z,4.70
2018-01-14T00:33:12.328Z,4.70
2018-01-14T00:35:40.022Z,4.70
2018-01-14T00:38:07.669Z,4.70
2018-01-14T00:40:35.359Z,4.70
2018-01-14T00:43:03.034Z,4.70
2018-01-14T00:45:31.449Z,4.70
2018-01-14T00:47:59.103Z,4.70
2018-01-14T00:50:26.888Z,4.70
2018-01-14T00:52:54.643Z,4.70
2018-01-14T00:55:22.300Z,4.80
2018-01-14T00:57:49.985Z,4.70
2018-01-14T01:00:17.667Z,4.70
2018-01-14T01:02:45.387Z,4.70
2018-01-14T01:05:13.138Z,4.70
2018-01-14T01:07:40.841Z,4.60
2018-01-14T01:10:08.566Z,4.60
2018-01-14T01:12:36.201Z,4.70
2018-01-14T01:15:03.880Z,4.70
2018-01-14T01:17:32.369Z,4.60
2018-01-14T01:20:00.008Z,4.60
2018-01-14T01:22:28.408Z,4.60
2018-01-14T01:24:56.834Z,4.60
2018-01-14T01:27:24.496Z,4.60
2018-01-14T01:29:52.131Z,4.60
2018-01-14T01:32:19.843Z,4.60
2018-01-14T01:34:47.532Z,4.60
2018-01-14T01:37:15.970Z,4.60
2018-01-14T01:39:43.623Z,4.50
2018-01-14T01:42:11.261Z,4.60
2018-01-14T01:44:38.913Z,4.50
2018-01-14T01:47:06.558Z,4.50
2018-01-14T01:49:34.992Z,4.50
2018-01-14T01:52:02.657Z,4.50
2018-01-14T01:54:30.311Z,4.40
2018-01-14T01:56:57.947Z,4.40
2018-01-14T01:59:25.632Z,4.40
2018-01-14T02:01:53.280Z,4.50
2018-01-14T02:04:20.916Z,4.40
2018-01-14T02:06:48.622Z,4.40
2018-01-14T02:09:16.318Z,4.40
2018-01-14T02:11:44.028Z,4.30
2018-01-14T02:14:11.719Z,4.30
2018-01-14T02:16:39.601Z,4.30
2018-01-14T02:19:08.024Z,4.30
2018-01-14T02:21:35.664Z,4.20
2018-01-14T02:24:04.142Z,4.20
2018-01-14T02:26:32.588Z,4.20
2018-01-14T02:29:00.266Z,4.20
2018-01-14T02:31:27.980Z,4.20
2018-01-14T02:33:55.643Z,4.20
2018-01-14T02:36:23.349Z,4.20
2018-01-14T02:38:51.017Z,4.20
2018-01-14T02:41:18.703Z,4.20
2018-01-14T02:43:47.179Z,4.20
2018-01-14T02:46:15.592Z,4.10
2018-01-14T02:48:43.269Z,4.10
2018-01-14T02:51:10.958Z,4.10
2018-01-14T02:53:38.650Z,4.10
2018-01-14T02:56:07.155Z,4.10
2018-01-14T02:58:34.820Z,4.10
2018-01-14T03:01:02.468Z,4.10
2018-01-14T03:03:30.146Z,4.10
2018-01-14T03:05:57.796Z,4.10
2018-01-14T03:08:25.423Z,4.20
2018-01-14T03:10:53.158Z,4.20
2018-01-14T03:13:21.603Z,4.10
2018-01-14T03:15:49.269Z,4.10
2018-01-14T03:18:16.976Z,4.10
2018-01-14T03:20:44.673Z,4.10
2018-01-14T03:23:13.145Z,4.20
2018-01-14T03:25:41.586Z,4.20
2018-01-14T03:28:09.310Z,4.20
2018-01-14T03:30:36.995Z,4.20
2018-01-14T03:33:04.633Z,4.20
2018-01-14T03:35:32.335Z,4.10
2018-01-14T03:38:00.022Z,4.20
2018-01-14T03:40:27.722Z,4.20
2018-01-14T03:42:55.356Z,4.20
2018-01-14T03:45:23.793Z,4.10
2018-01-14T03:47:51.467Z,4.10
2018-01-14T03:50:19.117Z,4.10
2018-01-14T03:52:46.845Z,4.10
2018-01-14T03:55:14.548Z,4.10
2018-01-14T03:57:42.223Z,4.10
2018-01-14T04:00:09.867Z,4.20
2018-01-14T04:02:37.586Z,4.10
2018-01-14T04:05:06.011Z,4.10
2018-01-14T04:07:33.655Z,4.10
2018-01-14T04:10:01.407Z,4.10
2018-01-14T04:12:29.514Z,4.10
2018-01-14T04:14:57.191Z,4.10
2018-01-14T04:17:24.844Z,4.10
2018-01-14T04:19:52.490Z,4.10
2018-01-14T04:22:20.191Z,4.10
2018-01-14T04:24:47.880Z,4.10
2018-01-14T04:27:15.595Z,4.10
2018-01-14T04:29:43.297Z,4.10
2018-01-14T04:32:11.806Z,4.10
2018-01-14T04:34:39.480Z,4.10
2018-01-14T04:37:07.110Z,4.10
2018-01-14T04:39:34.796Z,4.10
2018-01-14T04:42:02.494Z,4.10
2018-01-14T04:44:30.135Z,4.10
2018-01-14T04:46:57.805Z,4.10
2018-01-14T04:49:25.495Z,4.10
2018-01-14T04:51:53.123Z,4.00
2018-01-14T04:54:20.822Z,4.10
2018-01-14T04:56:48.499Z,4.10
2018-01-14T04:59:18.052Z,4.20
2018-01-14T05:01:45.689Z,4.10
2018-01-14T05:04:13.376Z,4.20
2018-01-14T05:06:41.075Z,4.20
2018-01-14T05:09:08.757Z,4.30
2018-01-14T05:11:37.233Z,4.20
2018-01-14T05:14:05.702Z,4.20
2018-01-14T05:16:34.164Z,4.20
2018-01-14T05:19:01.805Z,4.20
2018-01-14T05:21:29.473Z,4.20
2018-01-14T05:23:57.134Z,4.20
2018-01-14T05:26:24.851Z,4.20
2018-01-14T05:28:52.549Z,4.20
2018-01-14T05:31:20.185Z,4.20
2018-01-14T05:33:47.886Z,4.10
2018-01-14T05:36:15.582Z,4.10
2018-01-14T05:38:44.008Z,4.10
2018-01-14T05:41:11.680Z,4.00
2018-01-14T05:43:39.540Z,4.10
2018-01-14T05:46:07.218Z,4.10
2018-01-14T05:48:34.848Z,4.10
2018-01-14T05:51:02.562Z,4.10
2018-01-14T05:53:30.214Z,4.00
2018-01-14T05:55:57.940Z,4.00
2018-01-14T05:58:25.576Z,4.10
2018-01-14T06:00:54.022Z,4.00
2018-01-14T06:03:21.709Z,4.00
2018-01-14T06:05:50.176Z,4.00
2018-01-14T06:08:17.853Z,3.90
2018-01-14T06:10:46.300Z,3.90
2018-01-14T06:13:13.959Z,3.90
2018-01-14T06:15:41.651Z,3.90
2018-01-14T06:18:10.161Z,3.90
2018-01-14T06:20:37.793Z,3.90
2018-01-14T06:23:06.186Z,4.00
2018-01-14T06:25:34.830Z,4.00
2018-01-14T06:28:02.519Z,4.00
2018-01-14T06:30:30.155Z,4.00
2018-01-14T06:32:57.852Z,3.90
2018-01-14T06:35:26.313Z,3.90
2018-01-14T06:37:54.023Z,3.80
2018-01-14T06:40:21.664Z,3.90
2018-01-14T06:42:50.302Z,3.90
2018-01-14T06:45:18.100Z,3.80
2018-01-14T06:47:45.833Z,3.80
2018-01-14T06:50:13.534Z,3.80
2018-01-14T06:52:41.979Z,3.80
2018-01-14T06:55:09.698Z,3.80
2018-01-14T06:57:37.336Z,3.90
2018-01-14T07:00:05.785Z,4.00
2018-01-14T07:02:33.682Z,3.90
2018-01-14T07:05:02.140Z,4.00
2018-01-14T07:07:29.819Z,3.90
2018-01-14T07:09:58.292Z,4.00
2018-01-14T07:12:26.915Z,4.00
2018-01-14T07:14:54.627Z,3.90
2018-01-14T07:17:22.309Z,3.90
2018-01-14T07:19:50.738Z,3.90
2018-01-14T07:22:18.393Z,3.90
2018-01-14T07:24:46.024Z,3.90
2018-01-14T07:27:14.519Z,3.90
2018-01-14T07:29:42.203Z,3.90
2018-01-14T07:32:09.836Z,3.90
2018-01-14T07:34:37.568Z,3.90
2018-01-14T07:37:05.296Z,3.90
2018-01-14T07:39:32.982Z,3.90
2018-01-14T07:42:01.456Z,3.90
2018-01-14T07:44:29.128Z,3.80
2018-01-14T07:46:56.756Z,3.90
2018-01-14T07:49:24.414Z,3.90
2018-01-14T07:51:52.135Z,3.90
2018-01-14T07:54:20.543Z,3.90
2018-01-14T07:56:48.195Z,3.90
2018-01-14T07:59:15.870Z,4.00
2018-01-14T08:01:43.593Z,4.00
2018-01-14T08:04:11.324Z,4.00
2018-01-14T08:06:39.832Z,4.10
2018-01-14T08:09:07.547Z,4.10
2018-01-14T08:11:35.242Z,4.10
2018-01-14T08:14:02.930Z,3.90
2018-01-14T08:16:30.663Z,4.00
2018-01-14T08:18:58.305Z,4.00
2018-01-14T08:21:25.944Z,4.00
2018-01-14T08:23:53.715Z,4.00
2018-01-14T08:26:21.351Z,4.00
2018-01-14T08:28:49.806Z,4.00
2018-01-14T08:31:17.495Z,4.00
2018-01-14T08:33:45.970Z,4.10
2018-01-14T08:36:14.385Z,4.10
2018-01-14T08:38:42.041Z,4.00
2018-01-14T08:41:09.787Z,4.10
2018-01-14T08:43:38.230Z,4.20
2018-01-14T08:46:05.910Z,4.20
2018-01-14T08:48:33.625Z,4.30
2018-01-14T08:51:01.413Z,4.20
2018-01-14T08:53:29.075Z,4.20
2018-01-14T08:55:57.543Z,4.30
2018-01-14T08:58:25.252Z,4.30
2018-01-14T09:00:53.038Z,4.20
2018-01-14T09:03:20.673Z,4.20
2018-01-14T09:05:48.371Z,4.20
2018-01-14T09:08:16.133Z,4.30
2018-01-14T09:10:43.886Z,4.20
2018-01-14T09:13:11.536Z,4.30
2018-01-14T09:15:39.988Z,4.30
2018-01-14T09:18:07.687Z,4.30
2018-01-14T09:20:36.112Z,4.30
2018-01-14T09:23:03.831Z,4.30
2018-01-14T09:25:31.593Z,4.40
2018-01-14T09:27:59.984Z,4.40
2018-01-14T09:30:39.546Z,4.40
2018-01-14T09:33:07.224Z,4.50
2018-01-14T09:35:34.904Z,4.40
2018-01-14T09:38:02.706Z,4.40
2018-01-14T09:40:31.042Z,4.50
2018-01-14T09:42:58.682Z,4.50
2018-01-14T09:45:26.311Z,4.50
2018-01-14T09:47:54.012Z,4.60
2018-01-14T09:50:21.714Z,4.50
2018-01-14T09:52:50.116Z,4.50
2018-01-14T09:55:17.826Z,4.50
2018-01-14T09:57:45.512Z,4.50
2018-01-14T10:00:13.978Z,4.50
2018-01-14T10:02:41.711Z,4.50
2018-01-14T10:05:09.410Z,4.50
2018-01-14T10:07:37.152Z,4.50
2018-01-14T10:10:04.836Z,4.60
2018-01-14T10:12:32.523Z,4.60
2018-01-14T10:15:01.000Z,4.60
2018-01-14T10:17:29.479Z,4.60
2018-01-14T10:19:57.929Z,4.60
2018-01-14T10:22:27.228Z,4.70
2018-01-14T10:24:54.908Z,4.70
2018-01-14T10:27:26.285Z,4.70
2018-01-14T10:29:54.865Z,4.80
2018-01-14T10:32:23.339Z,4.70
2018-01-14T10:34:51.812Z,4.70
2018-01-14T10:37:20.257Z,4.70
2018-01-14T10:39:47.912Z,4.70
2018-01-14T10:42:15.574Z,4.70
2018-01-14T10:44:43.245Z,4.70
2018-01-14T10:47:10.897Z,4.80
2018-01-14T10:49:38.554Z,4.70
2018-01-14T10:52:06.464Z,4.70
2018-01-14T10:54:35.022Z,4.80
2018-01-14T10:57:02.823Z,4.80
2018-01-14T10:59:30.586Z,4.90
2018-01-14T11:01:58.310Z,5.00
2018-01-14T11:04:26.781Z,5.00
2018-01-14T11:06:54.459Z,5.00
2018-01-14T11:09:22.163Z,5.00
2018-01-14T11:11:50.623Z,5.00
2018-01-14T11:14:18.273Z,5.00
2018-01-14T11:16:45.932Z,5.00
2018-01-14T11:19:13.615Z,4.90
2018-01-14T11:21:42.042Z,4.90
2018-01-14T11:24:09.692Z,4.90
2018-01-14T11:26:37.418Z,5.00
2018-01-14T11:29:05.104Z,5.10
2018-01-14T11:31:32.810Z,5.10
2018-01-14T11:34:00.505Z,5.10
2018-01-14T11:36:28.956Z,5.20
2018-01-14T11:38:56.644Z,5.20
2018-01-14T11:41:24.369Z,5.20
2018-01-14T11:43:52.057Z,5.20
2018-01-14T11:46:19.695Z,5.20
2018-01-14T11:48:47.357Z,5.30
2018-01-14T11:51:15.046Z,5.30
2018-01-14T11:53:42.731Z,5.30
2018-01-14T11:56:11.191Z,5.10
2018-01-14T11:58:38.879Z,5.10
2018-01-14T12:01:07.515Z,5.10
2018-01-14T12:03:37.078Z,5.10
2018-01-14T12:06:05.709Z,5.10
2018-01-14T12:08:33.414Z,5.10
2018-01-14T12:11:01.875Z,5.10
2018-01-14T12:13:29.539Z,5.10
2018-01-14T12:15:57.182Z,5.10
2018-01-14T12:18:24.931Z,5.10
2018-01-14T12:20:52.641Z,5.10
2018-01-14T12:23:21.081Z,5.10
2018-01-14T12:25:48.781Z,5.10
2018-01-14T12:28:17.189Z,5.20
2018-01-14T12:30:44.919Z,5.20
2018-01-14T12:33:12.564Z,5.10
2018-01-14T12:35:40.249Z,5.20
2018-01-14T12:38:08.952Z,5.10
2018-01-14T12:40:36.618Z,5.10
2018-01-14T12:43:04.303Z,5.10
2018-01-14T12:45:32.996Z,5.10
2018-01-14T12:48:00.685Z,5.10
2018-01-14T12:50:28.366Z,5.10
2018-01-14T12:52:56.804Z,5.20
2018-01-14T12:55:24.442Z,5.20
2018-01-14T12:57:52.137Z,5.30
2018-01-14T13:00:19.824Z,5.30
2018-01-14T13:02:47.523Z,5.40
2018-01-14T13:05:15.199Z,5.40
2018-01-14T13:07:42.907Z,5.40
2018-01-14T13:10:10.746Z,5.30
2018-01-14T13:12:38.397Z,5.20
2018-01-14T13:15:06.034Z,5.20
2018-01-14T13:17:33.800Z,5.10
2018-01-14T13:20:01.458Z,5.20
2018-01-14T13:22:29.153Z,5.30
2018-01-14T13:24:56.879Z,5.40
2018-01-14T13:27:25.352Z,5.60
2018-01-14T13:29:53.799Z,5.60
2018-01-14T13:32:21.509Z,5.60
2018-01-14T13:34:49.170Z,5.70
2018-01-14T13:37:16.877Z,5.80
2018-01-14T13:39:44.546Z,5.80
2018-01-14T13:42:12.221Z,5.90
2018-01-14T13:44:39.914Z,5.80
2018-01-14T13:47:08.330Z,5.90
2018-01-14T13:49:35.973Z,5.90
2018-01-14T13:52:03.671Z,5.80
2018-01-14T13:54:31.310Z,5.80
2018-01-14T13:56:59.008Z,5.70
2018-01-14T13:59:26.698Z,5.70
2018-01-14T14:01:55.127Z,5.90
2018-01-14T14:04:22.835Z,5.90
2018-01-14T14:06:51.238Z,6.00
2018-01-14T14:09:18.955Z,6.00
2018-01-14T14:11:46.636Z,6.00
2018-01-14T14:14:15.053Z,5.90
2018-01-14T14:16:42.768Z,5.90
2018-01-14T14:19:10.422Z,5.80
2018-01-14T14:21:38.109Z,5.80
2018-01-14T14:24:06.550Z,5.90
2018-01-14T14:26:34.256Z,5.90
2018-01-14T14:29:02.745Z,5.90
2018-01-14T14:31:30.389Z,5.90
2018-01-14T14:33:58.799Z,5.60
2018-01-14T14:36:26.489Z,5.60
2018-01-14T14:38:54.219Z,5.60
2018-01-14T14:41:21.855Z,5.60
2018-01-14T14:43:50.269Z,5.60
2018-01-14T14:46:17.991Z,5.60
2018-01-14T14:48:45.682Z,5.60
2018-01-14T14:51:13.372Z,5.60
2018-01-14T14:53:41.024Z,5.60
2018-01-14T14:56:08.734Z,5.50
2018-01-14T14:58:36.385Z,5.50
2018-01-14T15:01:04.048Z,5.50
2018-01-14T15:03:31.731Z,5.50
2018-01-14T15:06:00.220Z,5.40
2018-01-14T15:08:28.814Z,5.40
2018-01-14T15:10:57.294Z,5.30
2018-01-14T15:13:25.744Z,5.30
2018-01-14T15:15:53.485Z,5.30
2018-01-14T15:18:21.166Z,5.20
2018-01-14T15:20:48.852Z,5.30
2018-01-14T15:23:17.573Z,5.10
2018-01-14T15:25:45.258Z,5.10
2018-01-14T15:28:12.952Z,5.10
2018-01-14T15:30:45.543Z,5.20
2018-01-14T15:33:13.991Z,5.20
2018-01-14T15:35:41.616Z,5.20
2018-01-14T15:38:09.269Z,5.20
2018-01-14T15:40:36.896Z,5.20
2018-01-14T15:43:04.588Z,5.20
2018-01-14T15:45:32.261Z,5.20
2018-01-14T15:47:59.982Z,5.20
2018-01-14T15:50:27.669Z,5.20
2018-01-14T15:52:55.372Z,5.30
2018-01-14T15:55:23.068Z,5.30
2018-01-14T15:57:50.765Z,5.20
2018-01-14T16:00:18.408Z,5.20
2018-01-14T16:02:46.899Z,5.30
2018-01-14T16:05:15.302Z,5.30
2018-01-14T16:07:42.985Z,5.30
2018-01-14T16:10:11.464Z,5.30
2018-01-14T16:12:39.095Z,5.30
2018-01-14T16:15:06.816Z,5.30
2018-01-14T16:17:35.316Z,5.20
2018-01-14T16:20:03.754Z,5.20
2018-01-14T16:22:31.379Z,5.20
2018-01-14T16:24:59.028Z,5.20
2018-01-14T16:27:27.779Z,5.30
2018-01-14T16:29:55.551Z,5.20
2018-01-14T16:32:23.188Z,5.30
2018-01-14T16:34:50.826Z,5.20
2018-01-14T16:37:18.485Z,5.10
2018-01-14T16:39:46.168Z,5.10
2018-01-14T16:42:13.828Z,5.10
2018-01-14T16:44:41.452Z,4.90
2018-01-14T16:47:09.928Z,4.70
2018-01-14T16:49:38.333Z,4.60
2018-01-14T16:52:06.000Z,4.60
2018-01-14T16:54:33.644Z,4.40
2018-01-14T16:57:01.324Z,4.30
2018-01-14T16:59:28.994Z,4.10
2018-01-14T17:01:56.668Z,4.00
2018-01-14T17:04:24.292Z,3.90
2018-01-14T17:06:51.949Z,3.70
2018-01-14T17:09:19.676Z,3.40
2018-01-14T17:11:47.342Z,3.20
2018-01-14T17:14:15.022Z,2.90
2018-01-14T17:16:43.672Z,2.60
2018-01-14T17:19:11.321Z,2.70
2018-01-14T17:21:39.030Z,2.50
2018-01-14T17:24:07.507Z,2.30
2018-01-14T17:26:35.921Z,2.20
2018-01-14T17:29:03.610Z,2.10
2018-01-14T17:31:31.236Z,2.00
2018-01-14T17:33:58.921Z,1.90
2018-01-14T17:36:26.588Z,1.80
2018-01-14T17:38:55.034Z,1.50
2018-01-14T17:41:22.738Z,1.50
2018-01-14T17:43:50.426Z,1.50
2018-01-14T17:46:18.111Z,1.40
2018-01-14T17:48:46.557Z,1.20
2018-01-14T17:51:14.823Z,1.20
2018-01-14T17:53:42.515Z,1.20
2018-01-14T17:56:11.110Z,1.10
2018-01-14T17:58:39.504Z,1.10
2018-01-14T18:01:07.995Z,1.00
2018-01-14T18:03:37.504Z,1.00
2018-01-14T18:06:05.178Z,1.00
2018-01-14T18:08:32.998Z,1.00
2018-01-14T18:11:02.462Z,0.90
2018-01-14T18:13:30.104Z,0.90
2018-01-14T18:15:57.786Z,0.90
2018-01-14T18:18:25.469Z,0.80
2018-01-14T18:20:53.176Z,0.80
2018-01-14T18:23:20.882Z,0.80
2018-01-14T18:25:48.561Z,0.70
2018-01-14T18:28:16.396Z,0.70
2018-01-14T18:30:44.028Z,0.70
2018-01-14T18:33:11.699Z,0.70
2018-01-14T18:35:39.379Z,0.70
2018-01-14T18:38:07.045Z,0.60
2018-01-14T18:40:34.688Z,0.60
2018-01-14T18:43:02.383Z,0.60
2018-01-14T18:45:42.006Z,0.60
2018-01-14T18:48:09.711Z,0.60
2018-01-14T18:50:37.437Z,0.50
2018-01-14T18:53:05.099Z,0.40
2018-01-14T18:55:32.789Z,0.40
2018-01-14T18:58:00.467Z,0.40
2018-01-14T19:00:28.881Z,0.50
2018-01-14T19:02:56.545Z,0.40
2018-01-14T19:05:24.190Z,0.40
2018-01-14T19:07:51.875Z,0.40
2018-01-14T19:10:19.565Z,0.40
2018-01-14T19:12:47.248Z,0.40
2018-01-14T19:15:15.680Z,0.40
2018-01-14T19:17:43.367Z,0.40
2018-01-14T19:20:11.085Z,0.40
2018-01-14T19:22:38.726Z,0.40
2018-01-14T19:25:07.143Z,0.30
2018-01-14T19:27:34.841Z,0.30
2018-01-14T19:30:02.487Z,0.30
2018-01-14T19:32:30.128Z,0.30
2018-01-14T19:34:57.806Z,0.20
2018-01-14T19:37:25.432Z,0.20
2018-01-14T19:39:53.132Z,0.20
2018-01-14T19:42:20.850Z,0.20
2018-01-14T19:44:48.494Z,0.20
2018-01-14T19:47:16.902Z,0.20
2018-01-14T19:49:44.706Z,0.20
2018-01-14T19:52:12.415Z,0.20
2018-01-14T19:54:40.103Z,0.20
2018-01-14T19:57:07.774Z,0.20
2018-01-14T19:59:35.478Z,0.10
2018-01-14T20:02:03.214Z,0.10
2018-01-14T20:04:31.066Z,0.10
2018-01-14T20:06:58.831Z,0.10
2018-01-14T20:09:26.586Z,0.10
2018-01-14T20:11:54.256Z,0.10
2018-01-14T20:14:25.674Z,0.10
2018-01-14T20:16:53.396Z,0.00
2018-01-14T20:19:21.055Z,0.10
2018-01-14T20:21:48.709Z,0.10
2018-01-14T20:24:16.402Z,0.10
2018-01-14T20:26:44.811Z,0.10
2018-01-14T20:29:12.500Z,0.10
2018-01-14T20:31:40.175Z,0.10
2018-01-14T20:34:07.873Z,0.10
2018-01-14T20:36:36.682Z,0.00
2018-01-14T20:39:04.439Z,0.00
2018-01-14T20:41:32.854Z,-0.10
2018-01-14T20:44:00.507Z,-0.10
2018-01-14T20:46:28.263Z,-0.10
2018-01-14T20:48:55.914Z,-0.10
2018-01-14T20:51:23.574Z,0.00
2018-01-14T20:53:51.286Z,0.00
2018-01-14T20:56:18.919Z,0.00
2018-01-14T20:58:46.612Z,-0.10
2018-01-14T21:01:14.332Z,-0.10
2018-01-14T21:03:42.005Z,-0.10
2018-01-14T21:06:09.696Z,-0.20
2018-01-14T21:08:37.412Z,-0.20
2018-01-14T21:11:05.227Z,-0.20
2018-01-14T21:13:32.944Z,-0.30
2018-01-14T21:16:00.648Z,-0.30
2018-01-14T21:18:28.327Z,-0.30
2018-01-14T21:20:56.016Z,-0.30
2018-01-14T21:23:24.513Z,-0.30
2018-01-14T21:25:52.232Z,-0.30
2018-01-14T21:28:19.959Z,-0.30
2018-01-14T21:30:47.722Z,-0.30
2018-01-14T21:33:15.430Z,-0.20
2018-01-14T21:35:43.139Z,-0.20
2018-01-14T21:38:10.801Z,-0.20
2018-01-14T21:40:38.461Z,-0.20
2018-01-14T21:43:06.270Z,-0.20
2018-01-14T21:45:33.965Z,-0.20
2018-01-14T21:48:02.414Z,-0.20
2018-01-14T21:50:30.068Z,-0.30
2018-01-14T21:52:57.766Z,-0.20
2018-01-14T21:55:26.253Z,-0.30
2018-01-14T21:57:54.701Z,-0.30
2018-01-14T22:00:22.357Z,-0.30
2018-01-14T22:02:50.072Z,-0.40
2018-01-14T22:05:17.783Z,-0.30
2018-01-14T22:07:45.518Z,-0.30
2018-01-14T22:10:13.217Z,-0.30
2018-01-14T22:12:40.909Z,-0.30
2018-01-14T22:15:09.390Z,-0.40
2018-01-14T22:17:37.828Z,-0.30
2018-01-14T22:20:05.535Z,-0.40
2018-01-14T22:22:33.260Z,-0.40
2018-01-14T22:25:00.909Z,-0.50
2018-01-14T22:27:28.644Z,-0.50
2018-01-14T22:29:56.320Z,-0.40
2018-01-14T22:32:24.072Z,-0.40
2018-01-14T22:34:51.757Z,-0.50
2018-01-14T22:37:19.410Z,-0.50
2018-01-14T22:39:47.103Z,-0.50
2018-01-14T22:42:14.853Z,-0.50
2018-01-14T22:44:42.568Z,-0.50
2018-01-14T22:47:10.274Z,-0.50
2018-01-14T22:49:37.951Z,-0.50
2018-01-14T22:52:05.638Z,-0.50
2018-01-14T22:54:34.062Z,-0.50
2018-01-14T22:57:01.706Z,-0.50
2018-01-14T22:59:29.401Z,-0.50
2018-01-14T23:01:57.045Z,-0.50
2018-01-14T23:04:24.738Z,-0.50
2018-01-14T23:06:52.407Z,-0.50
2018-01-14T23:09:20.062Z,-0.50
2018-01-14T23:11:48.723Z,-0.40
2018-01-14T23:14:16.368Z,-0.40
2018-01-14T23:16:44.124Z,-0.40
2018-01-14T23:19:11.814Z,-0.40
2018-01-14T23:21:39.508Z,-0.40
2018-01-14T23:24:07.272Z,-0.40
2018-01-14T23:26:34.965Z,-0.40
2018-01-14T23:29:03.415Z,-0.50
2018-01-14T23:31:31.126Z,-0.50
2018-01-14T23:33:58.805Z,-0.50
2018-01-14T23:36:26.502Z,-0.50
2018-01-14T23:38:54.177Z,-0.50
2018-01-14T23:41:21.821Z,-0.50
2018-01-14T23:43:49.469Z,-0.50
2018-01-14T23:46:17.133Z,-0.50
2018-01-14T23:48:44.830Z,-0.50
2018-01-14T23:51:13.317Z,-0.50
2018-01-14T23:53:41.772Z,-0.60
2018-01-14T23:56:09.486Z,-0.60
2018-01-14T23:58:37.181Z,-0.50
